Terminal Aerodrome Forecast
Issued by NWS Corpus Christi, TX

Home | Current Version | Previous Version | Text Only | Print | Product List | Glossary On
Versions: 1 2 3 4 5 6 7 8 9 10 11 12 13 14
008
FTUS44 KCRP 270531
TAFVCT
TAF
KVCT 270531Z 2706/2806 15005KT P6SM FEW015
      TEMPO 2709/2713 5SM BR SCT015
     FM271400 19008KT P6SM FEW025
     FM271900 15011G16KT P6SM SCT050
     FM280100 16008KT P6SM FEW025=

USA.gov is the U.S. government's official web portal to all federal, state and local government web resources and services.